• Join FlightAware (Why Join?)
  • Login
  • US Flag GB Flag 
08:01 EDT


 

Airport Tracker/Info


-or-


 

Live Flight TrackerFlight Track Log ✈ DAL3974 ✈ 23-Apr-2013 ✈ KDTW - KMHT

Flight Track Log - Related Links

Times and Time Zones

All times are in EDT time to prevent confusion due to time zone crossing. See the DAL3974 flight status page for this flight to view local times or setup timezone preferences in your user account.

Time Position Orientation Groundspeed Altitude Reporting Facility
EDT Latitude Longitude Course Direction KTS MPH feet Rate Location/Type
19:57 42.2036 -83.3556 78° East 153 176 1,300  Level Cleveland Center
19:57 42.1950 -83.3519 163° South 155 178 2,100 2,040 Climbing FAA TRACON SMA TRACON (SMA)
19:58 42.1781 -83.3483 171° South 179 206 2,600 2,100 Climbing FAA TRACON SMA TRACON (SMA)
19:58 42.1625 -83.3447 170° South 187 215 3,500 2,880 Climbing FAA TRACON SMA TRACON (SMA)
19:58 42.1478 -83.3414 170° South 187 215 4,500 2,340 Climbing FAA TRACON SMA TRACON (SMA)
19:59 42.1283 -83.3369 170° South 202 232 5,100 1,620 Climbing FAA TRACON SMA TRACON (SMA)
19:59 42.1097 -83.3231 151° Southeast 261 300 5,600 2,400 Climbing FAA TRACON SMA TRACON (SMA)
19:59 42.0983 -83.2856 112° Southeast 292 336 6,700 2,880 Climbing FAA TRACON SMA TRACON (SMA)
20:00 42.2795 -82.9124 74° East  Level FlightAware Approximate
20:00 42.0919 -83.2539 105° East 288 331 7,600  Level FAA TRACON SMA TRACON (SMA)
20:00 42.0850 -83.2186 105° East 291 335 8,700 2,820 Climbing FAA TRACON SMA TRACON (SMA)
20:00 42.0836 -83.1792 93° East 301 346 9,500 2,220 Climbing FAA TRACON SMA TRACON (SMA)
20:01 42.3080 -82.7651 78° East  Level FlightAware Approximate
20:01 42.0958 -83.1458 64° Northeast 311 358 10,200  Level FAA TRACON SMA TRACON (SMA)
20:01 42.1108 -83.1094 61° Northeast 336 387 10,800 1,680 Climbing FAA TRACON SMA TRACON (SMA)
20:01 42.1267 -83.0692 62° Northeast 343 395 11,300 1,500 Climbing FAA TRACON SMA TRACON (SMA)
20:02 42.3309 -82.6158 78° East  Level FlightAware Approximate
20:02 42.1411 -83.0331 62° Northeast 352 405 11,800  Level FAA TRACON SMA TRACON (SMA)
20:02 42.1558 -82.9958 62° Northeast 361 415 12,200 1,260 Climbing FAA TRACON SMA TRACON (SMA)
20:02 42.1744 -82.9486 62° Northeast 368 423 12,700 1,440 Climbing FAA TRACON SMA TRACON (SMA)
20:03 42.1897 -82.9100 62° Northeast 374 430 13,200 1,500 Climbing FAA TRACON SMA TRACON (SMA)
20:03 42.2092 -82.8606 62° Northeast 383 441 13,700 1,320 Climbing FAA TRACON SMA TRACON (SMA)
20:03 42.2247 -82.8206 62° Northeast 386 444 14,100 1,320 Climbing FAA TRACON SMA TRACON (SMA)
20:04 42.2408 -82.7803 62° Northeast 393 452 14,600 1,500 Climbing FAA TRACON SMA TRACON (SMA)
20:04 42.2603 -82.7294 63° Northeast 396 456 15,100 1,320 Climbing FAA TRACON SMA TRACON (SMA)
20:04 42.2761 -82.6886 62° Northeast 399 459 15,500 1,320 Climbing FAA TRACON SMA TRACON (SMA)
20:05 42.2922 -82.6475 62° Northeast 400 460 16,000 1,500 Climbing FAA TRACON SMA TRACON (SMA)
20:05 42.3122 -82.5961 62° Northeast 402 463 16,500 1,500 Climbing FAA TRACON SMA TRACON (SMA)
20:05 42.3281 -82.5547 63° Northeast 403 464 17,000 1,320 Climbing FAA TRACON SMA TRACON (SMA)
20:06 42.3444 -82.5136 62° Northeast 404 465 17,400 1,200 Climbing FAA TRACON SMA TRACON (SMA)
20:06 42.3622 -82.4600 66° East 411 473 17,800 1,200 Climbing FAA TRACON SMA TRACON (SMA)
20:06 42.3669 -82.4131 82° East 412 474 18,200 1,020 Climbing FAA TRACON SMA TRACON (SMA)
20:07 42.3661 -82.3656 91° East 412 474 18,500 1,020 Climbing FAA TRACON SMA TRACON (SMA)
20:07 42.3633 -82.3181 95° East 414 476 18,900 1,140 Climbing FAA TRACON SMA TRACON (SMA)
20:07 42.3603 -82.2578 94° East 416 479 19,300 1,140 Climbing FAA TRACON SMA TRACON (SMA)
20:08 42.3592 -82.2053 92° East 417 480 19,700 720 Climbing FAA TRACON SMA TRACON (SMA)
20:08 42.3586 -82.1931 94° East 418 481 19,800 120 Climbing FAA TRACON SMA TRACON (SMA)
20:08 42.3586 -82.1931 71° East 418 481 19,800 1,140 Level FAA TRACON SMA TRACON (SMA)
20:09 42.3475 -81.9878 94° East 419 482 21,000 660 Climbing Cleveland Center
20:10 42.3408 -81.8219 93° East 436 502 21,000  Level Cleveland Center
20:11 42.3303 -81.6447 95° East 462 532 21,000  Level Cleveland Center
20:12 42.3233 -81.4678 93° East 471 542 21,000  Level Cleveland Center
20:13 42.3161 -81.3075 93° East 478 550 21,000  Level Cleveland Center
20:14 42.3067 -81.1306 94° East 478 550 21,000  Level Cleveland Center
20:15 42.2992 -80.9567 93° East 478 550 21,000  Level Cleveland Center
20:16 42.2892 -80.7797 94° East 473 544 21,000  Level Cleveland Center
20:17 42.2808 -80.6056 94° East 473 544 21,000  Level Cleveland Center
20:18 42.2683 -80.4175 95° East 459 528 21,000  Level Cleveland Center
20:19 42.2597 -80.2494 94° East 459 528 21,000  Level Cleveland Center
20:20 42.2508 -80.0867 94° East 447 514 21,000  Level Cleveland Center
20:21 42.2394 -79.9381 96° East 441 507 21,000  Level Cleveland Center
20:22 42.2303 -79.7700 94° East 446 513 21,000  Level Cleveland Center
20:23 42.2183 -79.5936 95° East 452 520 21,000  Level Cleveland Center
20:24 42.2064 -79.4228 95° East 457 526 21,000  Level Cleveland Center
20:25 42.1961 -79.2575 95° East 457 526 21,000  Level Cleveland Center
20:26 42.1922 -79.0978 92° East 445 512 21,000  Level Cleveland Center
20:27 42.2131 -78.9347 80° East 439 505 21,000  Level Cleveland Center
20:28 42.2372 -78.7575 80° East 439 505 21,000  Level Cleveland Center
20:29 42.2578 -78.5997 80° East 428 493 21,000  Level Cleveland Center
20:30 42.2756 -78.4419 81° East 428 493 21,000  Level Cleveland Center
20:31 42.2956 -78.2786 81° East 428 493 21,000  Level Cleveland Center
20:32 42.3150 -78.1122 81° East 434 499 21,000  Level Cleveland Center
20:34 42.3475 -77.8158 81° East 447 514 21,000  Level New York Center
20:35 42.3675 -77.6550 80° East 441 507 21,000  Level New York Center
20:36 42.3850 -77.4939 82° East 441 507 21,000  Level New York Center
20:37 42.4042 -77.3358 81° East 441 507 21,000  Level New York Center
20:38 42.4183 -77.2278 80° East 440 506 21,000  Level Boston Center
20:39 42.4353 -77.0686 82° East 440 506 21,000  Level Boston Center
20:40 42.4519 -76.9122 82° East 429 494 21,000  Level Boston Center
20:41 42.4683 -76.7556 82° East 423 487 21,000  Level Boston Center
20:42 42.4847 -76.5989 82° East 423 487 21,000  Level Boston Center
20:43 42.5028 -76.4425 81° East 423 487 21,000  Level Boston Center
20:44 42.5186 -76.2856 82° East 423 487 21,000  Level Boston Center
20:45 42.5369 -76.1119 82° East 423 487 21,000  Level Boston Center
20:46 42.5525 -75.9522 82° East 423 487 21,000  Level Boston Center
20:47 42.5697 -75.7953 81° East 423 487 21,000  Level Boston Center
20:48 42.5847 -75.6325 83° East 423 487 21,000  Level Boston Center
20:49 42.5994 -75.4753 83° East 423 487 21,000  Level Boston Center
20:50 42.6164 -75.3122 82° East 423 487 21,000  Level Boston Center
20:51 42.6286 -75.1519 84° East 423 487 21,000  Level Boston Center
20:52 42.6425 -75.0031 83° East 431 496 21,000  Level Boston Center
20:53 42.6586 -74.8372 82° East 436 502 21,000  Level Boston Center
20:54 42.6722 -74.6739 83° East 436 502 21,000  Level Boston Center
20:55 42.6858 -74.5133 83° East 436 502 21,000  Level Boston Center
20:56 42.7011 -74.3500 83° East 441 507 21,000  Level Boston Center
20:57 42.7142 -74.1864 84° East 441 507 21,000  Level Boston Center
20:58 42.7269 -74.0228 84° East 441 507 21,000  Level Boston Center
20:59 42.7397 -73.8592 84° East 441 507 21,000  Level Boston Center
21:00 42.7542 -73.6786 84° East 441 507 21,000  Level Boston Center
21:01 42.7600 -73.5147 87° East 441 507 21,000 -180 Level Boston Center
21:02 42.7636 -73.3478 88° East 441 507 20,700 -900 Descending Boston Center
21:03 42.7711 -73.1894 86° East 434 499 19,300 -900 Descending Boston Center
21:04 42.7719 -73.0311 90° East 419 482 19,000 -240 Descending Boston Center
21:05 42.7789 -72.8900 86° East 413 475 18,900 -720 Descending Boston Center
21:06 42.7836 -72.7372 88° East 408 470 17,600 -1,620 Descending Boston Center
21:07 42.7881 -72.5814 88° East 408 470 15,700 -1,980 Descending Boston Center
21:08 42.7922 -72.4317 88° East 403 464 13,700 -2,040 Descending Boston Center
21:09 42.7983 -72.2758 87° East 393 452 11,700 -1,800 Descending Boston Center
21:10 42.8147 -72.1600 79° East 345 397 10,200 -1,380 Descending Boston Center
21:11 42.8311 -72.0608 77° East 279 321 9,000 -1,200 Descending Boston Center
21:12 42.8286 -71.9561 92° East 268 308 7,800 -1,800 Descending Boston Center
21:13 42.8219 -71.8597 95° East 268 308 5,500 -1,800 Descending Boston Center
21:14 42.8153 -71.7664 96° East 250 288 4,300 -780 Descending Boston Center
21:15 42.8086 -71.6986 98° East 203 234 4,000 -900 Descending Boston Center
21:16 42.8019 -71.6308 98° East 187 215 2,600 -1,020 Descending Boston Center
21:17 42.8264 -71.5767 58° Northeast 152 175 2,000 -300 Descending Boston Center
21:18 42.8575 -71.5367 43° Northeast 145 167 2,100 60 Climbing Boston Center